Date,TemperatureHighF,TemperatureAvgF,TemperatureLowF,DewpointHighF,DewpointAvgF,DewpointLowF,HumidityHigh,HumidityAvg,HumidityLow,PressureMaxIn,PressureMinIn,WindSpeedMaxMPH,WindSpeedAvgMPH,GustSpeedMaxMPH,PrecipitationSumIn
2013-1-1,40.0,35.4,25.0,37.0,32.6,21.7,100,89,74,30.14,29.93,17,0,17,0.00
2013-1-2,37.0,26.4,21.0,24.3,21.2,18.0,94,81,53,30.30,30.12,10,0,18,0.00
2013-1-3,36.0,27.4,21.0,27.0,23.7,21.0,100,87,61,30.31,30.15,6,0,7,0.00
2013-1-4,39.0,32.2,24.0,31.5,28.8,24.0,100,88,70,30.20,30.03,16,0,22,0.00
2013-1-5,49.0,35.2,28.0,33.0,29.1,25.6,100,80,48,30.36,30.12,16,0,19,0.00
2013-1-6,49.0,38.0,31.0,41.1,34.4,30.2,100,88,63,30.32,30.01,6,0,8,0.00
2013-1-7,52.0,38.2,25.0,40.0,33.0,25.0,100,84,47,30.50,30.14,6,0,9,0.00
2013-1-8,50.0,34.0,21.0,42.5,31.8,21.0,100,93,72,30.54,30.37,5,0,8,0.00
2013-1-9,48.0,37.9,26.0,46.4,37.2,26.0,100,97,92,30.49,30.20,6,0,6,0.00
2013-1-10,53.0,43.0,36.0,41.1,34.4,29.3,94,73,43,30.62,30.30,13,0,17,0.00
2013-1-11,45.0,40.9,35.0,45.0,39.1,31.2,100,93,81,30.62,30.15,5,0,6,0.00
2013-1-12,50.0,45.5,41.0,50.0,45.5,41.0,100,100,100,30.22,30.14,3,0,4,0.00
2013-1-13,49.0,45.7,43.0,49.0,45.7,43.0,100,100,100,30.21,30.05,4,0,6,0.00
2013-1-14,58.0,49.6,39.0,57.0,47.3,35.3,100,93,64,30.37,29.96,5,0,7,0.00
2013-1-15,69.0,50.1,36.0,51.2,36.8,32.8,100,70,27,30.43,30.23,3,0,4,0.15
2013-1-16,68.0,65.6,64.0,45.2,43.1,39.9,47,44,37,30.23,29.86,0,0,0,0.00
2013-1-17,71.0,69.2,66.0,44.4,35.7,28.9,44,30,23,30.11,29.94,0,0,0,0.00
2013-1-18,68.0,63.4,59.0,29.0,17.8,7.7,24,17,12,30.52,30.02,0,0,0,0.00
2013-1-19,74.0,66.4,59.0,33.6,27.4,16.8,30,23,19,30.45,29.95,0,0,0,0.00
2013-1-20,78.0,70.8,64.0,35.8,28.2,15.4,32,21,12,30.08,29.69,0,0,0,0.00
2013-1-21,64.0,61.3,59.0,21.9,15.6,10.6,22,17,13,30.15,29.89,0,0,0,0.00
2013-1-22,60.0,55.3,50.0,15.1,4.2,-2.1,17,13,9,30.29,29.89,0,0,0,0.00
2013-1-23,55.0,50.0,46.0,7.7,2.0,-2.2,19,14,11,30.34,30.23,0,0,0,0.00
2013-1-24,59.0,52.2,46.0,8.9,4.6,0.2,20,15,10,30.48,30.22,0,0,0,0.00
2013-1-25,55.0,51.6,48.0,21.6,9.0,0.2,29,18,12,30.51,30.15,0,0,0,0.00
2013-1-26,62.0,54.1,49.0,15.6,12.3,9.0,25,19,13,30.45,30.14,0,0,0,0.00
2013-1-27,67.0,58.6,51.0,19.4,14.8,10.2,22,18,13,30.59,30.44,0,0,0,0.00
2013-1-28,65.0,61.3,56.0,43.2,32.2,17.5,46,35,21,30.55,30.04,0,0,0,0.00
2013-1-29,76.0,70.5,64.0,54.0,49.2,42.3,53,47,41,30.15,30.04,0,0,0,0.00
2013-1-30,85.0,77.3,71.0,71.5,62.3,53.0,69,60,53,30.08,29.33,0,0,0,0.00
2013-1-31,82.0,72.7,62.0,72.1,38.9,13.9,74,35,15,29.84,29.03,0,0,0,0.00
2013-2-1,64.0,60.5,57.0,25.1,15.7,5.6,27,17,10,30.29,29.84,0,0,0,0.00
2013-2-2,61.0,56.8,53.0,27.6,14.0,8.1,31,19,12,30.37,30.11,0,0,0,0.00
2013-2-3,63.0,61.4,58.0,27.6,22.3,20.8,31,22,21,30.11,29.84,0,0,0,0.00
2013-2-4,64.0,60.4,56.0,19.1,14.3,11.4,21,16,13,30.04,29.91,0,0,0,0.00
2013-2-5,64.0,62.6,60.0,35.8,31.9,28.5,36,31,29,30.01,29.93,0,0,0,0.00
2013-2-6,69.0,64.0,62.0,37.2,27.5,13.9,38,26,15,30.40,29.96,0,0,0,0.00
2013-2-7,65.0,60.6,57.0,19.2,14.6,11.5,20,16,14,30.54,30.40,0,0,0,0.00
2013-2-8,68.0,66.6,66.0,41.2,40.2,38.5,39,38,35,30.03,29.77,0,0,0,0.00
2013-2-9,63.0,59.5,57.0,37.0,14.9,11.5,38,18,14,30.41,29.83,0,0,0,0.00
2013-2-10,65.0,55.6,52.0,24.6,17.5,14.4,23,22,21,30.54,30.42,0,0,0,0.00
2013-2-11,72.0,67.8,63.0,54.6,47.7,31.1,58,49,30,30.23,29.68,0,0,0,0.00
2013-2-12,74.0,69.3,59.0,51.1,31.9,27.4,51,26,20,29.99,29.74,0,0,0,0.00
2013-2-13,69.0,59.6,45.0,55.8,44.2,30.7,100,59,35,30.02,29.70,0,0,1,0.02
2013-2-14,73.0,67.2,63.0,47.0,39.4,30.3,52,37,22,30.03,29.74,0,0,0,0.00
2013-2-15,78.0,68.9,61.0,43.9,38.0,32.2,45,33,21,30.06,29.90,0,0,0,0.00
2013-2-16,70.0,65.9,63.0,45.9,33.6,17.5,47,31,17,29.99,29.79,0,0,0,0.00
2013-2-17,65.0,60.8,55.0,18.0,11.2,4.1,18,14,11,30.09,29.74,0,0,0,0.00
2013-2-18,66.0,58.5,51.0,19.3,11.3,5.0,19,15,13,30.32,30.08,0,0,0,0.00
2013-2-19,71.0,65.0,57.0,55.5,36.4,18.5,59,37,19,30.24,29.70,0,0,0,0.00
2013-2-20,67.0,62.4,59.0,30.0,18.5,12.2,25,18,15,30.04,29.76,0,0,0,0.00
2013-2-21,67.0,61.0,57.0,21.3,17.4,13.4,21,18,16,30.33,30.04,0,0,0,0.00
2013-2-22,67.0,62.1,57.0,39.0,26.5,17.2,37,26,20,30.45,30.30,0,0,0,0.00
2013-2-23,69.0,66.8,64.0,55.8,49.9,38.3,67,55,36,30.31,29.84,0,0,0,0.00
2013-2-24,73.0,67.0,64.0,49.7,39.4,26.3,55,38,22,30.02,29.78,0,0,0,0.00
2013-2-25,71.0,67.0,63.0,35.5,31.2,24.6,30,26,23,30.25,30.01,0,0,0,0.00
2013-2-26,75.0,69.0,62.0,43.6,36.3,32.6,38,30,24,30.32,29.86,0,0,0,0.00
2013-2-27,75.0,70.7,42.1,52.2,46.2,36.1,95,43,36,29.89,29.50,0,0,0,0.37
2013-2-28,50.6,43.5,37.0,38.1,33.3,27.3,87,68,50,29.63,29.56,0,0,0,0.01
2013-3-1,47.4,41.1,34.6,30.5,27.3,24.6,80,58,46,29.79,29.62,0,0,0,0.00
2013-3-2,42.5,35.5,31.2,25.9,23.2,20.8,76,61,48,29.79,29.71,0,0,0,0.00
2013-3-3,40.4,33.1,28.7,21.1,18.5,15.7,65,55,43,29.79,29.68,0,0,0,0.00
2013-3-4,44.2,34.7,27.1,21.2,18.3,14.2,65,52,39,29.93,29.79,0,0,0,0.00
2013-3-5,52.4,40.3,31.4,28.3,23.8,19.5,64,53,36,30.03,29.93,0,0,0,0.00
2013-3-6,41.5,39.2,36.0,34.5,30.5,26.7,83,71,59,29.97,29.83,0,0,0,0.00
2013-3-7,40.9,37.1,33.5,34.6,29.3,25.0,90,74,60,30.09,29.93,0,0,0,0.10
2013-3-8,41.8,35.0,30.8,34.8,30.5,27.0,92,84,64,30.20,30.02,0,0,0,0.40
2013-3-9,58.9,44.2,32.9,27.3,23.3,11.7,69,47,17,30.32,30.18,0,0,0,0.00
2013-3-10,47.9,38.9,31.2,34.5,30.8,23.3,86,73,60,30.39,30.30,0,0,0,0.00
2013-3-11,55.2,45.4,36.6,47.2,40.0,32.3,90,82,57,30.33,30.09,0,0,0,0.00
2013-3-12,58.2,52.5,44.1,55.9,48.7,37.2,96,87,72,30.09,29.66,0,0,0,0.82
2013-3-13,53.7,44.4,37.3,37.6,30.2,22.4,85,60,32,29.90,29.80,0,0,0,0.00
2013-3-14,43.1,35.4,29.9,23.9,12.9,5.7,59,40,25,29.98,29.86,0,0,0,0.00
2013-3-15,47.7,38.7,28.8,30.0,19.6,10.2,56,46,38,30.00,29.72,0,0,0,0.00
2013-3-16,43.8,36.1,32.0,31.6,26.2,19.4,89,69,49,29.92,29.78,0,0,0,0.03
2013-3-17,39.2,34.6,29.1,30.5,19.9,13.8,84,56,39,30.31,29.92,0,0,0,0.01
2013-3-18,35.1,31.0,26.9,31.0,19.5,8.4,94,64,44,30.41,30.00,0,0,0,0.10
2013-3-19,48.7,38.9,32.6,37.8,32.3,16.8,95,79,40,30.01,29.70,0,0,0,0.58
2013-3-20,47.7,39.6,31.1,23.7,18.9,14.9,60,44,30,29.90,29.78,0,0,0,0.00
2013-3-21,41.9,35.2,31.0,28.7,18.0,10.6,85,51,32,29.84,29.64,0,0,0,0.00
2013-3-22,44.6,35.6,27.5,22.0,17.7,11.7,66,49,34,29.90,29.75,0,0,0,0.00
2013-3-23,47.8,39.3,32.0,21.8,19.5,16.5,62,46,31,29.95,29.84,0,0,0,0.00
2013-3-24,49.2,40.2,30.6,26.0,20.7,17.2,60,46,34,29.96,29.70,0,0,0,0.00
2013-3-25,39.2,37.4,33.3,35.1,29.8,24.4,90,75,56,29.70,29.48,0,0,0,0.11
2013-3-26,53.2,43.5,34.7,33.7,29.5,24.3,84,60,35,29.88,29.61,0,0,0,0.00
2013-3-27,54.2,43.8,34.2,30.4,26.8,20.6,68,53,29,30.00,29.87,0,0,0,0.00
2013-3-28,52.2,44.2,36.1,30.2,28.9,26.7,73,56,40,30.12,29.97,0,0,0,0.00
2013-3-29,58.9,46.6,36.1,29.8,28.1,24.6,72,50,29,30.16,30.06,0,0,0,0.00
2013-3-30,60.5,49.1,36.9,31.4,25.7,17.1,70,44,20,30.18,30.06,0,0,0,0.00
2013-3-31,56.3,45.3,34.2,43.6,32.9,24.5,94,64,35,30.12,29.68,0,0,0,0.16
2013-4-1,64.1,48.9,37.5,45.6,36.5,12.2,95,66,33,29.92,29.63,0,0,0,0.01
2013-4-2,45.9,38.9,31.9,17.5,13.7,9.7,50,36,25,30.09,29.92,0,0,0,0.00
2013-4-3,48.4,39.3,31.1,16.7,12.8,8.7,48,34,23,30.31,30.09,0,0,0,0.00
2013-4-4,55.2,42.5,29.6,24.7,18.8,11.9,57,39,26,30.40,30.08,0,0,0,0.00
2013-4-5,66.3,50.2,39.7,31.2,24.3,15.5,67,40,17,30.08,29.71,0,0,0,0.00
2013-4-6,55.9,44.3,34.6,26.9,16.4,8.5,61,35,16,30.31,30.00,0,0,0,0.00
2013-4-7,64.7,49.6,37.1,43.3,32.9,24.8,72,55,29,30.31,29.98,0,0,0,0.00
2013-4-8,77.3,60.7,45.8,45.7,42.5,36.0,82,55,25,30.07,29.97,0,0,0,0.00
2013-4-9,85.3,69.5,52.4,52.9,44.4,34.3,88,47,18,29.98,29.88,0,0,0,0.01
2013-4-10,77.6,64.6,56.4,55.3,49.7,43.9,94,60,42,29.94,29.80,0,0,0,0.36
2013-4-11,61.3,55.5,46.7,58.7,50.0,40.3,96,82,62,30.02,29.74,0,0,0,0.02
2013-4-12,48.3,43.2,40.8,42.0,40.1,37.8,93,89,68,30.00,29.71,0,0,0,0.63
2013-4-13,60.2,49.9,39.5,42.3,37.4,32.9,94,66,38,29.98,29.74,0,0,0,0.03
2013-4-14,61.7,53.3,43.0,39.9,32.8,26.4,81,48,29,30.21,29.97,0,0,0,0.00
2013-4-15,54.1,48.8,44.6,41.3,31.8,26.2,83,53,39,30.37,30.20,0,0,0,0.00
2013-4-16,71.2,58.3,46.0,54.9,48.5,41.5,86,71,52,30.37,30.10,0,0,0,0.00
2013-4-17,74.5,63.2,54.5,56.4,42.8,28.8,88,53,20,30.28,30.10,0,0,0,0.02
2013-4-18,55.1,51.7,48.3,50.9,44.4,40.0,94,77,61,30.33,30.09,0,0,0,0.01
2013-4-19,77.8,65.9,52.7,64.2,59.4,50.9,95,81,58,30.09,29.62,0,0,0,0.27
2013-4-20,59.9,53.2,46.3,54.9,35.2,22.1,90,54,31,30.30,29.68,0,0,0,0.15
2013-4-21,56.7,45.8,36.4,30.3,23.1,18.3,60,42,25,30.61,30.30,0,0,0,0.00
2013-4-22,50.4,45.2,36.8,36.7,31.6,27.4,76,59,42,30.65,30.47,0,0,0,0.00
2013-4-23,51.8,45.4,40.1,41.3,36.4,30.8,82,71,60,30.47,30.11,0,0,0,0.00
2013-4-24,74.8,57.2,38.9,53.0,45.2,35.2,87,66,44,30.12,29.79,0,0,0,0.00
2013-4-25,68.0,57.4,46.3,53.1,31.1,20.2,78,40,18,30.25,29.85,0,0,0,0.00
2013-4-26,69.0,57.5,43.5,35.5,29.7,21.4,67,37,17,30.39,30.25,0,0,0,0.00
2013-4-27,72.8,58.5,43.6,33.5,30.4,23.4,62,36,19,30.42,30.26,0,0,0,0.00
2013-4-28,73.2,58.4,43.4,41.7,35.5,27.9,71,45,27,30.30,30.17,0,0,0,0.00
2013-4-29,56.7,53.1,50.6,50.2,47.7,40.7,93,82,55,30.23,30.17,0,0,0,0.16
2013-4-30,63.1,55.1,47.2,49.0,39.7,22.3,92,61,24,30.33,30.19,0,0,0,0.01
2013-5-1,66.3,54.3,42.9,43.6,36.7,24.4,80,54,24,30.48,30.32,0,0,0,0.00
2013-5-2,73.0,58.9,43.7,45.5,42.5,39.5,86,58,33,30.47,30.31,0,0,0,0.00
2013-5-3,64.5,55.5,48.8,44.5,39.6,33.1,80,56,35,30.44,30.35,0,0,0,0.00
2013-5-4,67.3,54.0,44.3,44.0,41.5,38.0,87,65,38,30.37,30.23,0,0,0,0.00
2013-5-5,59.7,50.8,44.7,43.2,40.4,36.1,83,68,46,30.28,30.22,0,0,0,0.00
2013-5-6,65.2,54.4,44.2,52.5,46.5,39.7,87,75,59,30.25,30.15,0,0,0,0.00
2013-5-7,70.0,59.5,48.3,58.6,52.5,44.8,89,78,62,30.17,30.07,0,0,0,0.00
2013-5-8,66.5,60.5,54.5,60.6,57.4,51.5,95,90,81,30.08,29.95,0,0,0,1.40
2013-5-9,70.5,60.5,53.0,59.7,55.0,50.5,95,83,59,29.99,29.88,0,0,0,0.31
2013-5-10,83.1,68.2,53.5,59.5,55.5,48.7,93,67,34,29.99,29.88,0,0,0,0.00
2013-5-11,73.0,64.9,60.7,65.0,61.7,57.0,95,89,68,29.90,29.68,0,0,0,0.24
2013-5-12,68.8,61.0,50.9,59.7,42.2,26.5,93,54,25,29.94,29.66,0,0,0,0.01
2013-5-13,57.5,50.6,43.0,34.0,29.7,23.9,67,46,30,30.11,29.94,0,0,0,0.00
2013-5-14,64.1,52.2,40.9,36.0,29.3,18.6,70,45,19,30.13,30.01,0,0,0,0.00
2013-5-15,75.6,60.5,44.4,57.6,46.8,34.6,71,61,47,30.06,29.67,0,0,0,0.01
2013-5-16,82.8,69.7,57.6,60.8,55.5,45.0,89,63,34,29.82,29.70,0,0,0,0.01
2013-5-17,75.8,66.6,57.8,46.1,41.4,37.3,55,41,27,30.18,29.82,0,0,0,0.01
2013-5-18,61.7,58.7,54.2,54.9,49.9,44.0,85,73,55,30.29,30.18,0,0,0,0.00
2013-5-19,57.8,56.2,54.6,56.0,54.7,52.6,98,95,84,30.29,30.16,0,0,0,0.53
2013-5-20,79.8,67.6,56.7,67.2,62.1,55.9,98,84,63,30.17,29.95,0,0,0,0.00
2013-5-21,88.8,75.2,62.3,71.2,66.3,60.0,96,76,53,29.96,29.83,0,0,0,0.00
2013-5-22,82.5,71.8,61.3,71.3,66.1,58.6,93,83,68,29.92,29.80,0,0,0,0.00
2013-5-23,81.0,72.7,68.7,71.3,67.6,65.0,93,84,66,29.87,29.73,0,0,0,0.14
2013-5-24,68.6,55.8,45.7,65.5,51.9,40.4,95,87,76,29.96,29.67,0,0,0,0.35
2013-5-25,58.2,50.4,44.2,44.3,40.8,35.5,91,71,49,30.02,29.91,0,0,0,0.09
2013-5-26,69.8,58.0,46.7,40.3,36.6,31.0,72,48,27,30.20,29.98,0,0,0,0.00
2013-5-27,76.0,61.5,42.4,45.9,39.3,34.3,83,48,26,30.25,30.11,0,0,0,0.00
2013-5-28,65.8,57.9,51.7,57.5,51.6,44.2,97,80,56,30.21,30.11,0,0,0,0.32
2013-5-29,88.2,71.3,58.2,69.3,62.7,57.4,98,77,48,30.12,29.98,0,0,0,0.06
2013-5-30,94.3,82.0,68.6,68.5,64.7,60.4,88,59,35,30.12,30.04,0,0,0,0.00
2013-5-31,94.7,82.6,68.9,70.7,64.3,58.3,87,57,31,30.11,29.97,0,0,0,0.00
2013-6-1,92.7,81.5,69.1,69.8,66.1,61.7,88,61,39,30.01,29.87,0,0,0,0.00
2013-6-2,90.2,80.8,72.4,69.8,67.7,64.6,83,66,47,29.89,29.76,0,0,0,0.01
2013-6-3,84.2,73.5,68.1,69.7,65.9,49.3,94,78,49,29.87,29.78,0,0,0,0.15
2013-6-4,78.7,68.1,57.3,49.3,44.8,41.3,62,44,29,30.10,29.87,0,0,0,0.02
2013-6-5,72.3,64.2,54.6,54.5,44.6,37.8,84,50,37,30.20,30.09,0,0,0,0.00
2013-6-6,68.5,62.3,57.4,59.3,56.6,50.7,94,82,55,30.14,29.99,0,0,0,0.07
2013-6-7,63.2,61.0,59.6,61.9,59.6,58.2,96,95,93,30.00,29.59,0,0,0,0.45
2013-6-8,77.1,67.7,57.3,64.4,60.9,55.0,95,80,62,30.04,29.57,0,0,0,0.05
2013-6-9,84.0,72.7,58.5,62.4,58.8,55.8,92,64,41,30.16,30.04,0,0,0,0.02
2013-6-10,68.9,66.3,63.5,65.3,62.8,59.8,97,89,74,30.14,29.79,0,0,0,0.01
2013-6-11,82.0,73.6,66.2,68.3,65.3,60.3,98,77,57,29.79,29.62,0,0,0,0.01
2013-6-12,82.1,72.6,64.9,61.4,56.3,52.8,79,58,38,29.84,29.70,0,0,0,0.01
2013-6-13,65.0,62.7,57.1,61.9,58.4,54.2,93,86,73,29.83,29.43,0,0,0,0.01
2013-6-14,72.3,60.8,53.8,61.3,54.4,49.3,93,81,52,29.89,29.52,0,0,0,0.01
2013-6-15,83.0,71.1,58.2,59.6,55.6,51.6,88,61,37,30.01,29.88,0,0,0,0.01
2013-6-16,82.8,71.3,59.4,65.2,59.0,52.5,86,67,40,29.98,29.76,0,0,0,0.01
2013-6-17,88.0,75.5,64.7,67.6,64.2,60.8,93,70,46,29.90,29.82,0,0,0,0.01
2013-6-18,83.2,71.2,64.0,70.0,64.5,60.9,92,80,56,29.88,29.79,0,0,0,0.15
2013-6-19,80.0,68.9,58.6,60.9,53.4,42.7,91,62,29,30.16,29.86,0,0,0,0.00
2013-6-20,83.3,70.8,55.5,60.2,55.3,51.1,89,60,39,30.25,30.15,0,0,0,0.00
2013-6-21,85.3,73.2,58.2,59.4,54.6,50.2,80,54,38,30.29,30.21,0,0,0,0.00
2013-6-22,87.0,73.9,58.5,64.5,59.2,53.0,84,61,46,30.25,30.10,0,0,0,0.00
2013-6-23,89.8,76.7,65.1,72.4,66.5,60.6,91,72,49,30.18,30.03,0,0,0,0.01
2013-6-24,95.3,80.7,71.3,73.0,68.8,61.4,94,70,39,30.06,29.94,0,0,0,0.03
2013-6-25,93.3,79.2,67.7,74.9,68.7,64.8,91,72,45,29.99,29.80,0,0,0,0.17
2013-6-26,88.8,79.6,72.1,71.9,67.9,64.5,89,68,50,29.84,29.76,0,0,0,0.00
2013-6-27,87.2,78.2,71.4,73.4,70.4,68.2,95,78,57,29.81,29.53,0,0,0,1.18
2013-6-28,88.0,77.7,71.2,71.8,69.0,65.1,95,76,51,29.55,29.45,0,0,0,0.00
2013-6-29,87.8,78.0,67.2,68.8,65.7,62.7,91,68,45,29.68,29.47,0,0,0,0.00
2013-6-30,84.5,76.3,71.0,74.6,71.1,67.4,92,84,70,29.89,29.68,0,0,0,0.08
2013-7-1,77.5,74.6,71.7,74.2,71.9,69.4,95,91,87,30.03,29.87,0,0,0,0.79
2013-7-2,85.3,77.2,72.8,74.8,72.3,70.8,95,85,66,30.17,30.02,0,0,0,0.10
2013-7-3,86.3,77.2,71.3,77.0,72.1,68.7,93,85,67,30.24,30.15,0,0,0,0.15
2013-7-4,90.6,81.8,74.7,76.0,73.1,70.7,96,76,57,30.23,30.13,0,0,0,0.02
2013-7-5,92.7,82.9,73.1,74.5,72.2,69.2,94,72,51,30.20,30.07,0,0,0,0.00
2013-7-6,95.3,85.4,75.2,75.3,72.5,70.9,88,67,48,30.12,30.00,0,0,0,0.00
2013-7-7,95.5,85.5,76.4,75.9,72.4,67.7,87,66,49,30.05,29.91,0,0,0,0.00
2013-7-8,91.8,80.8,71.2,71.6,67.9,65.3,85,66,46,30.03,29.95,0,0,0,0.00
2013-7-9,91.5,80.0,70.2,72.8,69.4,66.2,91,72,49,30.06,29.97,0,0,0,0.46
2013-7-10,88.0,79.8,72.2,75.9,72.3,69.9,94,79,60,30.01,29.79,0,0,0,0.01
2013-7-11,87.8,80.5,75.6,73.6,69.5,62.1,86,70,52,29.91,29.78,0,0,0,0.00
2013-7-12,79.0,73.4,68.2,69.6,65.8,62.2,95,78,64,30.07,29.90,0,0,0,0.35
2013-7-13,81.1,73.4,67.4,75.2,70.8,65.9,96,92,80,30.26,30.07,0,0,0,0.10
2013-7-14,92.3,82.4,74.3,75.7,73.1,70.3,96,75,54,30.32,30.22,0,0,0,0.00
2013-7-15,98.2,87.1,75.5,75.4,72.5,70.0,85,64,44,30.24,30.11,0,0,0,0.00
2013-7-16,96.7,86.9,76.9,72.7,68.8,64.3,76,57,37,30.19,30.11,0,0,0,0.00
2013-7-17,98.8,87.7,78.0,72.3,70.6,67.2,78,59,38,30.18,30.04,0,0,0,0.00
2013-7-18,100.0,89.4,78.1,75.9,72.7,68.7,80,60,38,30.06,29.94,0,0,0,0.00
2013-7-19,98.3,88.8,79.8,79.7,75.8,71.9,86,67,46,29.96,29.77,0,0,0,0.00
2013-7-20,94.0,84.0,77.5,76.4,72.5,69.5,83,69,49,29.82,29.71,0,0,0,0.04
2013-7-21,90.5,80.6,75.2,71.8,67.1,60.9,86,65,41,29.94,29.81,0,0,0,0.00
2013-7-22,85.0,78.1,74.0,74.7,70.8,65.7,95,79,64,29.94,29.78,0,0,0,0.20
2013-7-23,88.3,78.9,71.7,75.7,72.2,69.1,96,81,61,29.78,29.55,0,0,0,0.42
2013-7-24,83.5,76.9,67.7,69.5,64.1,54.2,90,66,49,29.92,29.60,0,0,0,0.00
2013-7-25,68.3,66.0,63.5,59.3,54.7,48.9,81,67,59,30.04,29.91,0,0,0,0.00
2013-7-26,85.1,73.2,65.1,62.7,60.0,58.0,81,65,45,30.04,29.98,0,0,0,0.00
2013-7-27,86.5,74.2,62.9,67.7,62.7,59.8,92,70,44,30.03,29.92,0,0,0,0.00
2013-7-28,80.5,72.0,67.0,70.6,66.8,63.3,95,84,65,29.96,29.87,0,0,0,1.42
2013-7-29,85.5,75.7,66.9,69.3,63.4,52.3,95,69,35,30.10,29.93,0,0,0,0.01
2013-7-30,83.4,73.7,62.5,61.1,57.6,54.8,78,58,41,30.16,30.09,0,0,0,0.00
2013-7-31,85.0,73.9,60.4,63.8,59.3,55.9,88,63,40,30.15,30.02,0,0,0,0.00
2013-8-1,72.2,69.1,66.0,68.7,65.4,63.0,96,88,75,30.02,29.82,0,0,0,0.81
2013-8-2,85.3,75.1,63.7,68.4,64.1,59.5,96,71,43,29.90,29.78,0,0,0,0.01
2013-8-3,79.0,71.0,67.2,67.4,64.0,59.8,89,79,64,29.91,29.83,0,0,0,0.03
2013-8-4,81.8,73.0,64.6,64.8,57.8,51.9,85,60,40,29.97,29.84,0,0,0,0.00
2013-8-5,80.7,70.5,60.6,57.8,51.2,44.3,72,53,32,30.05,29.96,0,0,0,0.00
2013-8-6,82.0,71.6,60.5,63.2,57.0,50.5,85,62,36,30.11,30.02,0,0,0,0.00
2013-8-7,79.2,72.3,67.3,67.3,65.1,62.1,86,79,64,30.12,30.04,0,0,0,0.00
2013-8-8,84.0,73.8,69.3,76.0,70.6,67.1,95,90,71,30.05,29.98,0,0,0,0.95
2013-8-9,86.3,77.1,71.8,76.1,73.4,70.4,96,89,71,30.00,29.79,0,0,0,0.06
2013-8-10,85.0,77.0,69.9,72.4,66.2,60.0,92,71,50,30.03,29.85,0,0,0,0.00
2013-8-11,84.3,74.0,61.3,64.1,58.8,51.1,84,61,39,30.11,30.00,0,0,0,0.00
2013-8-12,84.3,74.7,68.8,67.7,65.4,60.9,93,74,48,30.02,29.91,0,0,0,0.30
2013-8-13,78.9,72.2,68.7,70.1,67.5,63.8,96,86,69,29.92,29.68,0,0,0,0.84
2013-8-14,75.8,67.9,58.6,65.1,53.4,48.5,87,61,44,30.05,29.75,0,0,0,0.00
2013-8-15,80.3,68.2,56.0,56.5,51.7,45.6,81,58,32,30.13,30.05,0,0,0,0.00
2013-8-16,82.2,70.0,56.5,58.3,54.2,48.7,90,61,34,30.19,30.11,0,0,0,0.00
2013-8-17,84.3,71.7,60.2,60.5,56.6,53.6,83,61,37,30.26,30.19,0,0,0,0.00
2013-8-18,77.5,70.3,65.0,61.6,58.5,53.2,84,67,44,30.24,30.11,0,0,0,0.00
2013-8-19,79.0,70.3,62.4,65.4,62.0,59.2,92,76,54,30.12,30.03,0,0,0,0.00
2013-8-20,90.5,76.8,63.2,68.1,64.7,60.9,93,69,40,30.12,30.04,0,0,0,0.00
2013-8-21,91.3,78.7,65.8,66.7,63.5,57.3,88,62,36,30.17,30.04,0,0,0,0.00
2013-8-22,78.0,72.9,70.1,72.0,69.3,65.2,95,89,77,30.05,29.87,0,0,0,0.52
2013-8-23,83.5,75.0,68.4,69.9,61.7,51.8,93,66,35,30.08,29.86,0,0,0,0.00
2013-8-24,82.0,70.8,61.1,58.7,53.4,47.0,82,56,32,30.33,30.08,0,0,0,0.00
2013-8-25,83.3,71.3,58.2,58.8,56.3,51.7,89,62,36,30.38,30.22,0,0,0,0.00
2013-8-26,82.3,73.0,64.0,68.7,62.2,56.4,87,69,56,30.23,29.90,0,0,0,0.02
2013-8-27,90.0,78.9,69.6,70.3,68.1,65.8,92,71,48,29.91,29.81,0,0,0,0.02
2013-8-28,84.3,75.2,70.6,72.7,70.0,66.4,93,84,67,29.88,29.83,0,0,0,0.07
2013-8-29,80.3,72.8,69.5,70.1,67.6,64.8,94,84,66,30.01,29.86,0,0,0,0.01
2013-8-30,85.3,75.0,68.3,71.0,67.9,65.0,91,79,57,30.01,29.84,0,0,0,0.00
2013-8-31,87.0,77.8,70.2,74.0,71.0,67.9,93,80,64,29.85,29.76,0,0,0,0.00
2013-9-1,85.5,77.2,72.8,74.3,71.8,69.7,94,84,66,29.84,29.76,0,0,0,0.15
2013-9-2,81.7,75.3,71.9,74.4,71.8,69.2,97,89,68,29.79,29.69,0,0,0,0.11
2013-9-3,83.2,74.8,67.0,71.2,64.8,56.8,95,74,45,29.88,29.70,0,0,0,0.01
2013-9-4,82.0,71.7,61.3,60.6,58.3,53.6,88,64,45,30.00,29.88,0,0,0,0.00
2013-9-5,79.8,69.4,60.5,61.8,54.0,41.8,89,61,31,30.14,29.92,0,0,0,0.00
2013-9-6,73.2,62.9,53.2,49.8,44.9,38.2,74,54,31,30.24,30.12,0,0,0,0.00
2013-9-7,80.3,65.9,50.3,56.1,50.3,45.3,88,60,33,30.12,29.89,0,0,0,0.00
2013-9-8,83.4,72.0,62.0,65.6,56.3,45.1,83,59,36,30.06,29.81,0,0,0,0.00
2013-9-9,71.3,64.4,54.8,59.4,50.9,44.8,77,62,47,30.23,30.06,0,0,0,0.00
2013-9-10,87.9,75.9,66.5,73.7,67.9,59.1,89,77,62,30.15,30.03,0,0,0,0.00
2013-9-11,95.2,83.4,72.8,77.8,73.3,70.2,93,73,52,30.10,29.96,0,0,0,0.00
2013-9-12,85.8,77.5,68.8,75.4,70.9,66.2,93,81,65,29.98,29.66,0,0,0,0.50
2013-9-13,77.7,69.0,58.9,66.7,59.3,49.8,93,73,50,29.85,29.63,0,0,0,0.08
2013-9-14,67.9,59.2,52.7,50.3,47.3,44.8,79,65,49,30.12,29.85,0,0,0,0.00
2013-9-15,73.5,61.0,47.1,53.5,47.6,42.7,85,64,36,30.21,30.07,0,0,0,0.00
2013-9-16,74.0,62.8,56.0,57.9,53.3,47.5,91,73,45,30.23,30.02,0,0,0,0.04
2013-9-17,68.3,56.8,46.6,48.8,40.9,35.0,77,57,35,30.42,30.22,0,0,0,0.00
2013-9-18,72.2,59.4,46.7,49.2,44.8,41.7,84,61,36,30.34,30.17,0,0,0,0.00
2013-9-19,77.5,62.6,47.5,54.3,49.2,43.5,87,65,37,30.19,30.05,0,0,0,0.00
2013-9-20,81.8,65.7,52.0,61.0,55.0,48.7,91,71,43,30.08,29.97,0,0,0,0.00
2013-9-21,79.8,66.3,53.5,66.5,58.9,50.0,94,79,49,30.00,29.64,0,0,0,0.27
2013-9-22,71.6,64.0,54.5,66.0,51.6,40.0,94,67,43,29.90,29.64,0,0,0,0.33
2013-9-23,67.3,57.7,49.0,46.1,42.5,39.9,75,58,42,30.04,29.90,0,0,0,0.00
2013-9-24,74.8,59.7,43.9,49.1,44.2,39.7,87,59,36,30.05,29.87,0,0,0,0.00
2013-9-25,74.2,61.5,48.5,53.5,46.9,42.3,83,61,38,29.95,29.86,0,0,0,0.00
2013-9-26,70.7,61.1,53.9,57.6,54.2,49.6,88,78,59,30.08,29.92,0,0,0,0.00
2013-9-27,69.9,61.8,53.4,55.0,51.5,48.6,86,70,52,30.25,30.08,0,0,0,0.00
2013-9-28,73.3,63.6,55.3,54.4,51.9,46.7,85,67,42,30.31,30.22,0,0,0,0.00
2013-9-29,71.5,61.1,53.3,56.9,53.0,49.8,89,75,56,30.22,30.06,0,0,0,0.00
2013-9-30,76.1,62.8,51.1,54.1,51.4,48.4,91,69,42,30.08,29.95,0,0,0,0.00
2013-10-1,82.5,67.0,52.0,61.6,55.3,48.4,90,68,42,30.00,29.89,0,0,0,0.00
2013-10-2,84.8,70.7,55.8,62.9,58.8,52.6,91,68,46,30.00,29.90,0,0,0,0.00
2013-10-3,80.9,70.0,58.7,60.5,56.8,47.4,88,66,32,30.11,30.00,0,0,0,0.00
2013-10-4,86.8,73.1,60.8,66.6,62.3,57.0,89,71,48,30.05,29.94,0,0,0,0.00
2013-10-5,77.8,69.4,64.4,66.5,64.1,62.6,95,84,66,30.08,29.99,0,0,0,0.01
2013-10-6,68.5,66.3,64.2,66.7,64.7,62.6,97,95,90,30.07,30.00,0,0,0,0.00
2013-10-7,79.2,66.4,57.5,70.7,63.5,50.7,97,91,71,30.00,29.72,0,0,0,0.16
2013-10-8,69.4,59.0,48.8,51.2,46.7,41.6,93,66,37,30.31,29.98,0,0,0,0.09
2013-10-9,61.3,56.2,51.2,48.9,45.1,38.9,76,66,60,30.37,30.27,0,0,0,0.03
2013-10-10,61.6,57.1,51.9,54.4,50.7,45.7,88,79,74,30.27,30.05,0,0,0,0.01
2013-10-11,66.7,62.4,57.1,60.2,56.7,53.2,90,82,75,30.07,29.99,0,0,0,0.01
2013-10-12,72.1,65.0,58.6,57.6,47.4,37.9,78,54,30,30.26,30.05,0,0,0,0.01
2013-10-13,65.2,59.2,54.7,53.5,51.0,48.6,82,75,62,30.37,30.25,0,0,0,0.00
2013-10-14,69.5,57.7,48.7,51.0,48.7,45.3,89,73,49,30.35,30.22,0,0,0,0.00
2013-10-15,72.2,59.0,50.3,55.4,48.6,39.3,91,71,41,30.25,30.10,0,0,0,0.00
2013-10-16,67.4,60.0,53.6,58.3,54.4,48.3,92,82,69,30.11,29.91,0,0,0,0.00
2013-10-17,73.4,65.0,60.1,62.8,60.3,57.8,96,85,64,29.91,29.67,0,0,0,0.02
2013-10-18,68.8,61.4,52.2,62.2,47.2,41.7,90,61,42,29.98,29.66,0,0,0,0.00
2013-10-19,64.1,54.1,44.6,53.0,45.3,40.3,89,73,50,29.98,29.74,0,0,0,0.01
2013-10-20,64.2,55.1,46.1,52.8,40.6,32.3,89,61,31,30.06,29.75,0,0,0,0.00
2013-10-21,68.2,53.7,39.7,43.5,39.2,35.8,87,62,34,30.15,29.98,0,0,0,0.00
2013-10-22,65.3,53.2,43.6,50.2,44.2,34.6,89,72,53,29.98,29.75,0,0,0,0.00
2013-10-23,57.1,47.8,41.4,39.9,36.9,35.1,81,66,48,29.81,29.60,0,0,0,0.00
2013-10-24,54.4,45.5,38.4,35.8,31.5,25.4,81,60,36,30.02,29.76,0,0,0,0.00
2013-10-25,54.7,44.9,36.1,34.6,31.1,27.6,77,60,37,30.23,30.01,0,0,0,0.00
2013-10-26,55.4,44.8,32.3,34.0,30.8,27.7,86,61,37,30.22,29.88,0,0,0,0.00
2013-10-27,59.7,50.6,42.4,35.1,32.7,30.4,68,51,35,30.12,29.85,0,0,0,0.00
2013-10-28,63.6,49.8,36.6,37.8,33.5,30.5,81,56,34,30.30,30.11,0,0,0,0.00
2013-10-29,59.9,49.5,42.2,37.0,34.1,31.5,67,56,38,30.40,30.30,0,0,0,0.00
2013-10-30,59.1,50.4,42.2,50.0,41.7,32.3,83,72,64,30.34,30.16,0,0,0,0.00
2013-10-31,65.1,58.1,49.8,60.5,54.3,45.7,93,87,78,30.22,29.79,0,0,0,0.09
2013-11-1,69.8,63.7,53.9,63.2,57.7,51.3,95,82,58,29.79,29.54,0,0,0,0.19
2013-11-2,70.0,58.6,52.2,53.9,46.6,39.8,94,66,41,29.77,29.60,0,0,0,0.00
2013-11-3,52.4,46.1,35.0,42.8,32.4,20.3,76,60,38,30.45,29.77,0,0,0,0.00
2013-11-4,47.2,38.6,31.0,26.2,19.8,13.5,62,48,29,30.65,30.45,0,0,0,0.00
2013-11-5,54.9,45.7,36.1,41.4,35.2,23.3,83,67,56,30.65,30.47,0,0,0,0.00
2013-11-6,63.1,52.5,41.9,51.3,44.6,37.9,90,75,54,30.49,30.06,0,0,0,0.00
2013-11-7,61.6,53.0,40.1,56.8,47.9,31.9,94,83,61,30.06,29.74,0,0,0,0.07
2013-11-8,51.2,43.5,37.8,35.8,29.4,24.0,82,58,40,30.22,29.93,0,0,0,0.00
2013-11-9,51.3,43.0,33.9,32.3,28.4,25.1,79,57,38,30.29,29.98,0,0,0,0.00
2013-11-10,61.4,47.8,37.5,39.5,32.4,26.1,82,57,37,30.06,29.82,0,0,0,0.00
2013-11-11,53.7,47.2,38.2,33.8,29.1,25.1,62,49,40,30.21,29.95,0,0,0,0.00
2013-11-12,49.7,38.0,30.1,35.6,24.3,16.5,81,58,46,30.30,29.92,0,0,0,0.02
2013-11-13,41.6,33.2,26.7,20.4,16.6,10.8,69,52,30,30.38,30.28,0,0,0,0.00
2013-11-14,55.2,41.0,29.5,21.5,18.3,13.2,67,43,20,30.28,30.16,0,0,0,0.00
2013-11-15,56.2,43.6,32.5,30.0,26.5,20.1,71,52,30,30.25,30.15,0,0,0,0.00
2013-11-16,60.7,50.3,41.0,45.9,40.2,29.5,88,69,51,30.32,30.22,0,0,0,0.03
2013-11-17,59.6,54.4,47.6,57.3,51.8,43.6,96,91,84,30.25,29.77,0,0,0,0.00
2013-11-18,66.7,59.7,49.6,61.2,41.7,26.6,95,55,31,29.78,29.58,0,0,0,0.24
2013-11-19,49.6,43.7,35.0,28.9,24.8,21.1,58,47,39,30.34,29.78,0,0,0,0.00
2013-11-20,46.9,37.2,31.0,21.8,16.7,5.2,65,45,20,30.61,30.34,0,0,0,0.00
2013-11-21,51.0,42.2,30.1,41.2,30.3,16.7,74,63,50,30.61,30.38,0,0,0,0.00
2013-11-22,57.4,51.5,47.5,49.7,45.5,40.4,94,80,72,30.38,29.90,0,0,0,0.06
2013-11-23,52.7,42.2,29.2,47.8,25.6,10.3,86,53,33,30.03,29.90,0,0,0,0.00
2013-11-24,30.5,25.7,22.1,10.9,4.4,1.6,48,40,30,30.40,30.03,0,0,0,0.00
2013-11-25,37.7,29.2,21.4,16.6,11.8,6.4,57,48,40,30.49,30.33,0,0,0,0.00
2013-11-26,44.4,35.4,31.2,43.0,25.8,15.0,96,70,48,30.33,29.73,0,0,0,0.30
2013-11-27,61.9,46.0,33.4,60.3,42.0,20.1,97,86,58,29.77,29.34,0,0,0,2.10
2013-11-28,37.4,32.7,28.6,21.3,15.5,10.4,62,49,34,30.47,29.77,0,0,0,0.01
2013-11-29,42.2,33.7,28.2,23.3,20.1,14.8,72,58,43,30.73,30.46,0,0,0,0.00
2013-11-30,38.7,31.2,23.9,29.2,19.9,12.0,73,63,53,30.75,30.37,0,0,0,0.00
2013-12-1,51.1,41.8,32.5,33.4,29.9,24.5,80,63,48,30.37,30.00,0,0,0,0.00
2013-12-2,51.4,43.2,36.3,34.1,31.2,28.4,82,63,48,30.01,29.87,0,0,0,0.00
2013-12-3,55.4,43.5,34.9,37.1,34.2,31.4,88,71,46,30.00,29.86,0,0,0,0.00
2013-12-4,49.4,44.4,36.8,44.3,38.1,31.9,86,79,68,30.12,30.00,0,0,0,0.00
2013-12-5,55.9,51.8,47.3,54.4,49.6,42.8,96,92,80,30.11,29.92,0,0,0,0.03
2013-12-6,59.4,47.6,38.0,58.5,45.2,35.5,97,91,86,30.15,29.85,0,0,0,0.72
2013-12-7,41.9,37.0,30.5,35.6,28.5,17.1,93,72,53,30.51,30.08,0,0,0,0.24
2013-12-8,32.9,29.4,27.2,28.3,20.0,15.6,93,69,55,30.58,30.36,0,0,0,0.00
2013-12-9,38.7,34.0,30.0,36.2,32.1,28.2,94,93,89,30.36,29.96,0,0,0,0.31
2013-12-10,35.2,31.7,24.7,33.2,29.0,19.0,95,90,77,30.14,29.87,0,0,0,0.08
2013-12-11,34.7,28.0,21.9,21.0,18.1,15.7,85,67,49,30.33,30.14,0,0,0,0.05
2013-12-12,31.7,25.5,20.4,18.3,10.6,6.3,71,53,36,30.36,30.17,0,0,0,0.00
2013-12-13,36.3,28.2,20.0,22.8,14.1,6.8,70,55,44,30.33,30.14,0,0,0,0.00
2013-12-14,31.4,24.7,19.7,27.1,20.1,17.0,96,83,63,30.48,29.76,0,0,0,0.00
2013-12-15,38.3,33.2,28.6,35.5,29.1,20.9,97,86,64,29.84,29.51,0,0,0,0.11
2013-12-16,32.4,27.6,21.3,22.9,14.3,9.8,75,58,43,30.23,29.83,0,0,0,0.00
2013-12-17,29.4,25.7,21.3,26.2,20.7,13.4,89,82,61,30.22,29.92,0,0,0,0.00
2013-12-18,38.9,29.4,20.3,25.3,21.1,16.5,88,72,53,30.18,29.92,0,0,0,0.11
2013-12-19,44.7,34.2,21.9,30.8,24.9,17.1,87,70,50,30.19,30.02,0,0,0,0.02
2013-12-20,51.2,41.8,32.9,35.3,32.0,28.0,85,69,51,30.10,29.96,0,0,0,0.00
2013-12-21,61.9,49.3,39.5,51.0,42.9,34.5,90,79,67,30.00,29.89,0,0,0,0.00
2013-12-22,69.0,62.8,50.4,62.6,57.4,46.5,96,83,73,29.95,29.78,0,0,0,0.02
2013-12-23,59.6,53.8,40.2,58.4,50.8,30.4,96,90,68,30.15,29.88,0,0,0,0.41
2013-12-24,43.4,35.3,25.1,30.8,22.4,9.4,83,60,43,30.36,30.09,0,0,0,0.00
2013-12-25,32.0,25.1,18.1,15.2,9.7,6.9,66,52,40,30.53,30.35,0,0,0,0.00
2013-12-26,36.2,31.4,27.1,27.3,22.5,14.5,75,69,58,30.43,30.17,0,0,0,0.00
2013-12-27,41.8,33.9,27.8,24.3,21.8,18.3,76,62,44,30.36,30.26,0,0,0,0.00
2013-12-28,55.7,40.4,26.3,29.4,26.0,20.8,82,59,34,30.29,30.06,0,0,0,0.00
2013-12-29,43.2,40.3,37.8,40.0,34.5,27.8,95,80,61,30.07,29.42,0,0,0,0.90
2013-12-30,44.4,34.7,22.4,37.2,26.6,9.9,94,73,54,30.18,29.69,0,0,0,0.01
2013-12-31,31.8,26.1,19.8,25.4,14.3,9.1,79,61,49,30.29,30.06,0,0,0,0.00
2014-1-1,36.4,28.7,21.7,21.2,16.6,9.4,74,60,51,30.41,30.23,0,0,0,0.00
2014-1-2,31.0,25.1,14.7,22.1,19.8,12.2,92,80,63,30.23,29.67,0,0,0,0.00